Time;durP1;ratioP1;P1;durP2;ratioP2;P2;SDS_P1;SDS_P2;PMS_P1;PMS_P2;Temp;Humidity;BMP_temperature;BMP_pressure;BME280_temperature;BME280_humidity;BME280_pressure;Samples;Min_cycle;Max_cycle;Signal;HPM_P1;HPM_P2
2022/06/07 00:01:02;;;;;;;5.65;4.97;;;14.70;77.70;;;;;;9177751;19;20460;-66
2022/06/07 00:04:10;;;;;;;8.95;5.38;;;14.60;77.60;;;;;;9180195;19;20014;-66
2022/06/07 00:07:15;;;;;;;8.05;6.00;;;14.60;77.80;;;;;;9177073;19;20115;-65
2022/06/07 00:10:21;;;;;;;11.95;5.88;;;14.60;77.80;;;;;;9180613;19;20431;-66
2022/06/07 00:13:26;;;;;;;8.95;6.25;;;14.60;77.80;;;;;;9178297;19;20452;-66
2022/06/07 00:16:31;;;;;;;7.85;6.25;;;14.60;77.80;;;;;;9178270;19;20019;-66
2022/06/07 00:19:39;;;;;;;8.98;6.80;;;14.60;77.80;;;;;;9177638;19;20022;-65
2022/06/07 00:22:44;;;;;;;11.43;6.32;;;14.60;77.90;;;;;;9178714;19;20022;-66
2022/06/07 00:25:53;;;;;;;8.48;6.68;;;14.60;77.90;;;;;;9175881;19;20354;-66
2022/06/07 00:28:59;;;;;;;11.50;7.30;;;14.50;78.00;;;;;;9177548;19;20620;-65
2022/06/07 00:32:06;;;;;;;10.70;7.63;;;14.60;78.00;;;;;;9178528;19;20057;-65
2022/06/07 00:35:14;;;;;;;13.40;8.25;;;14.50;78.00;;;;;;9177639;19;20480;-67
2022/06/07 00:38:19;;;;;;;12.50;7.68;;;14.50;78.10;;;;;;9178135;19;20100;-65
2022/06/07 00:41:24;;;;;;;8.63;7.22;;;14.50;78.00;;;;;;9180794;19;20023;-67
2022/06/07 00:44:34;;;;;;;7.72;6.60;;;14.50;78.00;;;;;;9188094;19;20014;-65
2022/06/07 00:47:40;;;;;;;9.98;7.30;;;14.50;78.20;;;;;;9188684;19;20015;-65
2022/06/07 00:50:56;;;;;;;9.15;6.95;;;14.40;78.10;;;;;;9186248;19;20026;-66
2022/06/07 00:54:01;;;;;;;9.23;7.28;;;14.40;78.30;;;;;;9183705;19;20065;-65
2022/06/07 00:57:08;;;;;;;13.82;9.00;;;14.40;78.20;;;;;;9184350;19;20018;-65
2022/06/07 01:00:19;;;;;;;9.95;7.68;;;14.40;78.30;;;;;;9186716;19;20021;-65
2022/06/07 01:03:28;;;;;;;11.75;8.27;;;14.40;78.40;;;;;;9184441;19;20010;-67
2022/06/07 01:13:13;;;;;;;14.45;9.13;;;14.30;78.30;;;;;;9184531;19;20022;-65
2022/06/07 01:16:18;;;;;;;10.32;8.05;;;14.40;78.40;;;;;;9187454;19;20015;-65
2022/06/07 01:19:24;;;;;;;10.73;8.25;;;14.40;78.50;;;;;;9185157;19;20025;-66
2022/06/07 01:22:31;;;;;;;12.23;8.63;;;14.40;78.50;;;;;;9185620;19;20390;-66
2022/06/07 01:25:38;;;;;;;14.40;9.30;;;14.30;78.60;;;;;;9178160;19;20022;-67
2022/06/07 01:28:44;;;;;;;14.52;9.57;;;14.40;78.70;;;;;;9185000;19;20018;-67
2022/06/07 01:31:50;;;;;;;13.15;8.98;;;14.40;78.80;;;;;;9185077;19;20011;-68
2022/06/07 01:34:59;;;;;;;12.77;8.90;;;14.40;78.80;;;;;;9182181;19;20500;-66
2022/06/07 01:38:07;;;;;;;13.38;9.52;;;14.40;78.80;;;;;;9185825;19;20006;-68
2022/06/07 01:44:33;;;;;;;13.32;9.32;;;14.40;78.80;;;;;;9185627;19;20661;-66
2022/06/07 01:47:39;;;;;;;15.57;9.60;;;14.40;78.80;;;;;;9185617;19;20025;-65
2022/06/07 01:50:44;;;;;;;13.27;9.73;;;14.40;78.90;;;;;;9183657;19;20380;-65
2022/06/07 01:53:51;;;;;;;15.88;10.60;;;14.40;78.90;;;;;;9181612;19;20015;-66
2022/06/07 01:56:57;;;;;;;17.67;11.45;;;14.40;79.00;;;;;;9183261;19;20011;-65
2022/06/07 02:00:04;;;;;;;15.93;11.18;;;14.40;79.00;;;;;;9183806;19;20372;-66
2022/06/07 02:03:17;;;;;;;17.60;11.35;;;14.40;79.00;;;;;;9183747;19;20368;-66
2022/06/07 02:06:22;;;;;;;20.27;12.70;;;14.40;79.00;;;;;;9183584;19;20134;-66
2022/06/07 02:09:30;;;;;;;18.75;13.02;;;14.40;79.10;;;;;;9183266;19;20078;-66
2022/06/07 02:12:36;;;;;;;22.42;14.13;;;14.40;79.20;;;;;;9181985;19;20103;-66
2022/06/07 02:15:41;;;;;;;21.77;13.85;;;14.40;79.20;;;;;;9182421;19;20082;-66
2022/06/07 02:18:46;;;;;;;22.40;14.48;;;14.40;79.30;;;;;;9182802;19;20014;-66
2022/06/07 02:22:00;;;;;;;;;;;14.30;79.20;;;;;;9180363;19;20020;-66
2022/06/07 02:25:09;;;;;;;24.23;14.60;;;14.40;79.10;;;;;;9180379;19;20265;-66
2022/06/07 02:28:17;;;;;;;25.00;16.33;;;14.40;79.10;;;;;;9183969;19;20022;-66
2022/06/07 02:31:24;;;;;;;28.95;16.98;;;14.40;79.20;;;;;;9182290;19;20018;-67
2022/06/07 02:34:30;;;;;;;27.27;17.52;;;14.40;79.30;;;;;;9181735;19;20840;-66
2022/06/07 02:37:37;;;;;;;27.67;18.63;;;14.40;79.40;;;;;;9181776;19;20010;-66
2022/06/07 02:40:47;;;;;;;30.38;19.77;;;14.40;79.40;;;;;;9181932;19;20018;-66
2022/06/07 02:43:52;;;;;;;33.53;20.45;;;14.40;79.50;;;;;;9181648;19;20056;-66
2022/06/07 02:46:57;;;;;;;30.95;19.95;;;14.50;79.60;;;;;;9183827;19;20029;-66
2022/06/07 02:50:03;;;;;;;32.30;20.48;;;14.40;79.50;;;;;;9182389;19;20026;-66
2022/06/07 02:53:12;;;;;;;36.58;20.08;;;14.50;79.60;;;;;;9180491;19;20017;-66
2022/06/07 02:56:20;;;;;;;36.22;21.02;;;14.50;79.70;;;;;;9182513;19;20480;-66
2022/06/07 02:59:26;;;;;;;36.25;22.00;;;14.50;79.80;;;;;;9181121;19;20082;-66
2022/06/07 03:02:31;;;;;;;33.17;21.35;;;14.50;80.30;;;;;;9180629;19;20010;-67
2022/06/07 03:05:37;;;;;;;31.73;21.10;;;14.50;79.80;;;;;;9179093;19;20002;-66
2022/06/07 03:08:43;;;;;;;34.08;21.38;;;14.50;79.80;;;;;;9179935;19;20015;-66
2022/06/07 03:11:50;;;;;;;34.25;21.95;;;14.60;79.80;;;;;;9176548;19;20026;-66
2022/06/07 03:14:55;;;;;;;33.70;21.55;;;14.60;80.00;;;;;;9175736;19;20552;-66
2022/06/07 03:18:01;;;;;;;40.30;21.88;;;14.60;80.00;;;;;;9175149;19;20018;-66
2022/06/07 03:21:12;;;;;;;34.67;21.33;;;14.60;80.00;;;;;;9175551;19;20661;-66
2022/06/07 03:24:21;;;;;;;37.75;22.60;;;14.60;79.90;;;;;;9173374;19;20019;-67
2022/06/07 03:27:32;;;;;;;35.75;21.65;;;14.60;80.60;;;;;;9176441;19;20019;-66
2022/06/07 03:30:39;;;;;;;37.50;23.13;;;14.60;80.10;;;;;;9175629;19;20047;-66
2022/06/07 03:33:47;;;;;;;37.70;21.80;;;14.60;80.10;;;;;;9175736;19;20107;-66
2022/06/07 03:36:53;;;;;;;39.17;22.85;;;14.60;80.10;;;;;;9175045;19;20019;-66
2022/06/07 03:40:00;;;;;;;41.75;22.70;;;14.70;80.20;;;;;;9173247;19;20082;-66
2022/06/07 03:43:08;;;;;;;42.08;23.27;;;14.70;80.20;;;;;;9174528;19;20014;-66
2022/06/07 03:46:16;;;;;;;41.20;24.77;;;14.70;80.20;;;;;;9175294;19;20025;-66
2022/06/07 03:49:23;;;;;;;41.60;25.33;;;14.70;80.20;;;;;;9175047;19;20026;-66
2022/06/07 03:52:33;;;;;;;43.30;25.90;;;14.70;80.20;;;;;;9173922;19;20014;-67
2022/06/07 03:55:42;;;;;;;37.00;23.08;;;14.70;80.20;;;;;;9172079;19;20019;-66
2022/06/07 03:58:53;;;;;;;42.30;23.02;;;14.70;80.20;;;;;;9173630;19;20085;-66
2022/06/07 04:01:58;;;;;;;39.03;23.58;;;14.70;80.30;;;;;;9174215;19;20011;-66
2022/06/07 04:05:04;;;;;;;43.20;25.05;;;14.70;80.20;;;;;;9173966;19;20010;-66
2022/06/07 04:08:15;;;;;;;43.53;25.13;;;14.70;80.30;;;;;;9173664;19;20026;-66
2022/06/07 04:11:28;;;;;;;45.53;26.70;;;14.70;80.30;;;;;;9172379;19;20014;-66
2022/06/07 04:14:41;;;;;;;41.72;25.55;;;14.80;80.40;;;;;;9172216;19;20018;-66
2022/06/07 04:17:53;;;;;;;42.83;25.13;;;14.80;80.40;;;;;;9178982;19;20056;-66
2022/06/07 04:21:03;;;;;;;40.55;25.15;;;14.80;80.30;;;;;;9182704;19;20018;-67
2022/06/07 04:24:09;;;;;;;43.60;26.38;;;14.80;80.30;;;;;;9180434;19;20030;-67
2022/06/07 04:27:15;;;;;;;40.92;25.63;;;14.80;80.40;;;;;;9184756;19;20027;-66
2022/06/07 04:30:29;;;;;;;38.88;22.95;;;14.80;80.40;;;;;;9183027;19;20010;-66
2022/06/07 04:33:37;;;;;;;37.67;23.30;;;14.80;80.40;;;;;;9182107;19;20025;-66
2022/06/07 04:36:45;;;;;;;39.17;23.02;;;14.80;80.40;;;;;;9181282;19;20489;-66
2022/06/07 04:39:54;;;;;;;39.35;23.38;;;14.80;80.30;;;;;;9182170;19;20788;-66
2022/06/07 04:43:00;;;;;;;34.58;21.85;;;14.80;80.30;;;;;;9182412;19;20022;-67
2022/06/07 04:46:15;;;;;;;35.58;21.88;;;14.90;80.40;;;;;;9181500;19;20034;-66
2022/06/07 04:49:22;;;;;;;41.92;22.75;;;14.90;80.50;;;;;;9181027;19;20018;-67
2022/06/07 04:52:27;;;;;;;36.75;21.15;;;14.90;80.40;;;;;;9182805;19;20025;-66
2022/06/07 04:55:33;;;;;;;38.20;23.20;;;14.90;80.40;;;;;;9179460;19;20030;-67
2022/06/07 04:58:39;;;;;;;38.05;25.50;;;14.90;80.50;;;;;;9181072;19;20025;-67
2022/06/07 05:01:55;;;;;;;40.50;24.80;;;15.00;80.50;;;;;;9181861;19;20476;-66
2022/06/07 05:05:04;;;;;;;39.70;24.10;;;15.00;80.50;;;;;;9181958;19;20369;-66
2022/06/07 05:08:10;;;;;;;39.60;25.05;;;15.00;80.40;;;;;;9180411;19;20011;-66
2022/06/07 05:11:17;;;;;;;33.25;23.10;;;14.90;80.40;;;;;;9178327;19;20345;-66
2022/06/07 05:14:23;;;;;;;37.35;22.85;;;15.00;80.50;;;;;;9179240;19;20010;-66
2022/06/07 05:17:31;;;;;;;38.97;22.73;;;15.00;80.40;;;;;;9180949;19;20015;-66
2022/06/07 05:20:40;;;;;;;33.28;21.45;;;15.00;80.50;;;;;;9179978;19;20491;-66
2022/06/07 05:23:52;;;;;;;30.52;19.73;;;15.00;80.40;;;;;;9176087;19;20094;-66
2022/06/07 05:27:00;;;;;;;29.92;18.48;;;15.00;80.30;;;;;;9177524;19;20018;-66
2022/06/07 05:30:14;;;;;;;26.35;18.35;;;15.00;80.30;;;;;;9182632;19;20479;-66
2022/06/07 05:33:42;;;;;;;28.67;18.13;;;15.00;80.30;;;;;;9173237;19;20018;-66
2022/06/07 05:36:47;;;;;;;28.48;18.33;;;15.00;80.30;;;;;;9174173;19;20014;-66
2022/06/07 05:39:53;;;;;;;26.98;18.05;;;15.00;80.30;;;;;;9179757;19;20014;-66
2022/06/07 05:42:58;;;;;;;25.30;16.38;;;15.10;80.30;;;;;;9180131;19;20030;-66
2022/06/07 05:46:16;;;;;;;26.83;17.10;;;15.10;80.30;;;;;;9179099;19;20018;-67
2022/06/07 05:49:32;;;;;;;29.42;18.83;;;15.10;80.20;;;;;;9180169;19;20574;-66
2022/06/07 05:52:43;;;;;;;27.52;16.55;;;15.10;80.30;;;;;;9179633;19;20345;-67
2022/06/07 05:55:50;;;;;;;28.63;17.48;;;15.10;80.20;;;;;;9177480;19;20019;-66
2022/06/07 05:58:56;;;;;;;25.45;16.83;;;15.10;80.20;;;;;;9179515;19;20033;-66
2022/06/07 06:02:02;;;;;;;28.05;17.58;;;15.10;80.20;;;;;;9179119;19;20010;-66
2022/06/07 06:05:16;;;;;;;32.20;20.38;;;15.10;80.10;;;;;;9176721;19;20476;-66
2022/06/07 06:11:42;;;;;;;36.92;19.73;;;15.20;80.10;;;;;;9172509;19;20052;-66
2022/06/07 06:14:54;;;;;;;34.92;19.73;;;15.20;80.10;;;;;;9173543;19;20076;-66
2022/06/07 06:18:03;;;;;;;30.70;18.88;;;15.20;80.10;;;;;;9173596;19;20354;-67
2022/06/07 06:21:22;;;;;;;28.40;19.02;;;15.30;80.10;;;;;;9173184;19;20022;-68
2022/06/07 06:24:27;;;;;;;30.10;17.65;;;15.30;80.10;;;;;;9168770;19;20582;-66
2022/06/07 06:27:34;;;;;;;25.95;16.52;;;15.30;80.10;;;;;;9173934;19;20685;-67
2022/06/07 06:30:45;;;;;;;27.00;17.23;;;15.30;80.00;;;;;;9176185;19;20014;-67
2022/06/07 06:33:57;;;;;;;23.75;16.20;;;15.40;80.10;;;;;;9177411;19;20014;-67
2022/06/07 06:37:09;;;;;;;27.63;16.13;;;15.40;80.00;;;;;;9174596;19;20476;-67
2022/06/07 06:40:17;;;;;;;27.35;14.70;;;15.50;80.00;;;;;;9173698;19;20026;-67
2022/06/07 06:43:29;;;;;;;22.15;14.10;;;15.50;79.90;;;;;;9177668;19;20006;-67
2022/06/07 06:46:43;;;;;;;18.30;10.85;;;15.50;79.80;;;;;;9177603;19;20023;-68
2022/06/07 06:49:50;;;;;;;15.10;11.48;;;15.60;79.80;;;;;;9174647;19;20021;-67
2022/06/07 06:52:58;;;;;;;22.35;13.38;;;15.70;79.70;;;;;;9177226;19;20007;-67
2022/06/07 06:56:06;;;;;;;17.73;11.27;;;15.70;79.60;;;;;;9175384;19;20027;-67
2022/06/07 06:59:18;;;;;;;18.73;12.02;;;15.70;79.50;;;;;;9176785;19;20022;-67
2022/06/07 07:02:26;;;;;;;26.90;11.48;;;15.70;79.40;;;;;;9175278;19;20022;-67
2022/06/07 07:05:45;;;;;;;17.70;10.75;;;15.80;79.40;;;;;;9178449;19;20456;-67
2022/06/07 07:08:54;;;;;;;15.43;10.02;;;15.80;79.30;;;;;;9174667;19;20019;-67
2022/06/07 07:12:04;;;;;;;15.43;9.67;;;15.90;79.30;;;;;;9180528;19;20476;-67
2022/06/07 07:15:22;;;;;;;13.60;8.55;;;16.00;79.40;;;;;;9180064;19;20038;-68
2022/06/07 07:18:41;;;;;;;13.95;7.93;;;16.10;79.20;;;;;;9180022;19;20014;-68
2022/06/07 07:21:48;;;;;;;11.65;7.18;;;16.20;79.00;;;;;;9181262;19;20336;-67
2022/06/07 07:24:57;;;;;;;13.38;7.53;;;16.30;78.80;;;;;;9177735;19;20014;-68
2022/06/07 07:28:02;;;;;;;12.15;6.93;;;16.40;78.60;;;;;;9176648;19;20119;-68
2022/06/07 07:31:14;;;;;;;9.73;6.65;;;16.40;78.40;;;;;;9179550;19;20487;-69
2022/06/07 07:34:22;;;;;;;12.85;6.82;;;16.50;78.20;;;;;;9180453;19;20006;-67
2022/06/07 07:37:28;;;;;;;14.55;6.53;;;16.60;78.10;;;;;;9177403;19;20007;-67
2022/06/07 07:40:47;;;;;;;12.07;6.82;;;16.70;78.00;;;;;;9180001;19;20085;-68
2022/06/07 07:43:55;;;;;;;12.25;6.90;;;16.80;77.70;;;;;;9179074;19;20103;-69
2022/06/07 07:47:01;;;;;;;12.68;6.25;;;16.90;77.70;;;;;;9180820;19;20048;-68
2022/06/07 07:50:13;;;;;;;12.40;6.15;;;16.90;77.40;;;;;;9176122;19;20389;-68
2022/06/07 07:53:24;;;;;;;11.82;5.75;;;17.00;77.20;;;;;;9176425;19;20785;-68
2022/06/07 07:56:35;;;;;;;15.15;7.47;;;17.10;77.10;;;;;;9176634;19;20064;-68
2022/06/07 07:59:42;;;;;;;12.00;6.60;;;17.20;76.90;;;;;;9176386;19;20015;-69
2022/06/07 08:02:48;;;;;;;13.00;6.75;;;17.30;76.80;;;;;;9178220;19;20460;-68
2022/06/07 08:06:07;;;;;;;11.35;6.72;;;17.30;76.60;;;;;;9175879;19;20109;-69
2022/06/07 08:09:13;;;;;;;11.48;7.00;;;17.40;76.60;;;;;;9179089;19;20026;-69
2022/06/07 08:12:21;;;;;;;11.05;6.90;;;17.50;76.40;;;;;;9178583;19;20014;-68
2022/06/07 08:15:29;;;;;;;8.95;6.25;;;17.50;76.20;;;;;;9180831;19;20518;-69
2022/06/07 08:18:34;;;;;;;14.10;6.55;;;17.60;76.10;;;;;;9179787;19;20023;-68
2022/06/07 08:21:41;;;;;;;7.18;4.95;;;17.60;76.10;;;;;;9179785;19;20018;-68
2022/06/07 08:24:46;;;;;;;9.02;5.80;;;17.70;75.90;;;;;;9171417;19;20022;-68
2022/06/07 08:27:54;;;;;;;9.75;5.65;;;17.70;75.70;;;;;;9175095;19;20017;-69
2022/06/07 08:30:59;;;;;;;12.23;5.53;;;17.70;75.40;;;;;;9174982;19;20025;-68
2022/06/07 08:40:46;;;;;;;11.60;5.82;;;17.80;75.20;;;;;;9177968;19;20006;-68
2022/06/07 08:43:54;;;;;;;7.38;5.35;;;17.80;75.10;;;;;;9177948;19;20019;-70
2022/06/07 08:47:03;;;;;;;9.27;5.65;;;17.90;75.10;;;;;;9177831;19;20007;-68
2022/06/07 08:50:18;;;;;;;13.13;5.80;;;17.90;75.00;;;;;;9179476;19;20033;-69
2022/06/07 08:53:27;;;;;;;11.05;5.75;;;17.90;74.70;;;;;;9177550;19;20027;-68
2022/06/07 08:56:35;;;;;;;11.57;5.80;;;17.90;74.60;;;;;;9174769;19;20086;-68
2022/06/07 08:59:46;;;;;;;12.57;6.47;;;17.90;74.60;;;;;;9177766;19;20010;-68
2022/06/07 09:03:20;;;;;;;7.03;5.78;;;17.90;74.60;;;;;;9182993;19;20095;-69
2022/06/07 09:06:36;;;;;;;9.43;5.70;;;18.00;74.50;;;;;;9182041;19;20018;-68
2022/06/07 09:13:08;;;;;;;5.47;4.43;;;17.90;74.40;;;;;;9182233;19;20018;-71
2022/06/07 09:16:16;;;;;;;9.30;5.85;;;17.90;74.30;;;;;;9182896;19;20018;-71
2022/06/07 09:19:25;;;;;;;8.05;5.43;;;17.90;74.30;;;;;;9184882;19;20499;-69
2022/06/07 09:22:41;;;;;;;9.60;5.63;;;17.90;74.20;;;;;;9186147;19;20085;-68
2022/06/07 09:25:51;;;;;;;12.50;5.78;;;17.90;74.00;;;;;;9182638;19;20011;-69
2022/06/07 09:29:09;;;;;;;12.43;5.25;;;17.90;74.00;;;;;;9183016;19;20021;-68
2022/06/07 09:32:19;;;;;;;9.55;5.43;;;17.90;73.70;;;;;;9186142;19;20425;-68
2022/06/07 09:35:27;;;;;;;8.70;5.88;;;17.90;73.60;;;;;;9185183;19;20021;-67
2022/06/07 09:38:37;;;;;;;8.05;5.63;;;17.90;73.60;;;;;;9184940;19;20018;-69
2022/06/07 09:41:47;;;;;;;11.88;6.40;;;17.90;73.50;;;;;;9185676;19;20020;-68
2022/06/07 09:45:00;;;;;;;9.73;6.47;;;17.90;73.50;;;;;;9186317;19;20014;-68
2022/06/07 09:48:26;;;;;;;9.88;5.82;;;17.90;73.50;;;;;;9186034;19;20017;-68
2022/06/07 09:51:40;;;;;;;10.65;7.07;;;17.90;73.60;;;;;;9183612;19;20006;-68
2022/06/07 09:54:47;;;;;;;;;;;18.00;73.50;;;;;;9186458;19;20022;-68
2022/06/07 09:58:03;;;;;;;16.65;7.13;;;18.00;73.60;;;;;;9184751;19;20351;-67
2022/06/07 10:01:17;;;;;;;10.38;7.15;;;18.00;73.50;;;;;;9185775;19;20017;-68
2022/06/07 10:04:37;;;;;;;12.75;6.55;;;18.00;73.40;;;;;;9185278;19;20502;-68
2022/06/07 10:07:51;;;;;;;10.18;6.07;;;18.00;73.30;;;;;;9182324;19;20018;-68
2022/06/07 10:11:00;;;;;;;14.13;6.25;;;18.00;73.40;;;;;;9183992;19;20074;-68
2022/06/07 10:14:22;;;;;;;9.75;5.32;;;18.00;73.30;;;;;;9184698;19;20081;-68
2022/06/07 10:17:50;;;;;;;11.82;5.90;;;18.00;73.10;;;;;;9183947;19;20086;-67
2022/06/07 10:21:16;;;;;;;6.50;5.07;;;18.10;73.10;;;;;;9182942;19;20384;-70
2022/06/07 10:24:31;;;;;;;10.75;5.63;;;18.00;72.80;;;;;;9174938;19;20048;-69
2022/06/07 10:27:40;;;;;;;;;;;18.10;72.90;;;;;;9179533;19;20344;-67
2022/06/07 10:30:55;;;;;;;10.15;6.00;;;18.00;73.00;;;;;;9180211;19;19928;-68
2022/06/07 10:34:03;;;;;;;9.93;6.22;;;18.10;73.00;;;;;;9178225;19;20523;-67
2022/06/07 10:37:19;;;;;;;9.48;6.68;;;18.10;73.10;;;;;;9179447;19;20362;-68
2022/06/07 10:40:37;;;;;;;9.15;6.15;;;18.10;72.90;;;;;;9175598;19;20651;-68
2022/06/07 10:43:52;;;;;;;8.52;6.40;;;18.20;73.00;;;;;;9173170;19;20133;-68
2022/06/07 10:46:57;;;;;;;11.27;6.88;;;18.20;72.90;;;;;;9171268;19;20060;-69
2022/06/07 10:50:07;;;;;;;9.65;6.88;;;18.30;73.00;;;;;;9173635;19;20018;-67
2022/06/07 10:53:20;;;;;;;10.80;6.55;;;18.40;73.00;;;;;;9173991;19;20456;-68
2022/06/07 10:56:30;;;;;;;10.73;6.15;;;18.50;72.90;;;;;;9172108;19;20022;-69
2022/06/07 10:59:39;;;;;;;14.75;6.35;;;18.60;72.80;;;;;;9173344;19;20029;-69
2022/06/07 11:02:54;;;;;;;7.45;5.35;;;18.70;72.60;;;;;;9174114;19;20048;-69
2022/06/07 11:09:41;;;;;;;10.20;5.70;;;18.90;72.30;;;;;;9178054;19;20018;-68
2022/06/07 11:12:51;;;;;;;6.47;4.95;;;19.00;71.90;;;;;;9177340;19;20018;-69
2022/06/07 11:16:06;;;;;;;6.90;4.95;;;19.10;72.00;;;;;;9178338;19;20046;-68
2022/06/07 11:19:12;;;;;;;12.48;5.93;;;19.10;71.70;;;;;;9176458;19;20030;-68
2022/06/07 11:22:20;;;;;;;14.55;5.72;;;19.10;71.70;;;;;;9179085;19;20010;-69
2022/06/07 11:25:41;;;;;;;12.73;5.95;;;19.20;71.60;;;;;;9171444;19;20014;-69
2022/06/07 11:28:49;;;;;;;9.35;5.75;;;19.20;71.30;;;;;;9179053;19;20018;-68
2022/06/07 11:31:54;;;;;;;12.07;5.78;;;19.30;71.50;;;;;;9177430;19;20016;-69
2022/06/07 11:35:34;;;;;;;8.77;5.00;;;19.30;71.30;;;;;;9177128;19;20019;-69
2022/06/07 11:39:07;;;;;;;6.43;4.85;;;19.40;70.90;;;;;;9178297;19;20018;-70
2022/06/07 11:42:33;;;;;;;6.63;4.68;;;19.40;70.90;;;;;;9177782;19;20901;-68
2022/06/07 11:45:53;;;;;;;6.82;5.07;;;19.40;70.80;;;;;;9181772;19;20104;-68
2022/06/07 11:48:59;;;;;;;19.40;6.07;;;19.40;70.70;;;;;;9183218;19;20019;-68
2022/06/07 11:52:26;;;;;;;11.40;6.38;;;19.50;70.90;;;;;;9180372;19;20014;-69
2022/06/07 11:55:44;;;;;;;8.25;5.60;;;19.60;70.70;;;;;;9180811;19;20361;-69
2022/06/07 11:59:02;;;;;;;7.50;5.88;;;19.60;70.50;;;;;;9181168;19;20047;-69
2022/06/07 12:02:25;;;;;;;9.90;6.55;;;19.60;70.40;;;;;;9182615;19;20021;-69
2022/06/07 12:05:33;;;;;;;12.97;6.17;;;19.70;70.40;;;;;;9182248;19;20021;-68
2022/06/07 12:08:51;;;;;;;8.40;5.68;;;19.70;70.50;;;;;;9178716;19;20021;-67
2022/06/07 12:11:59;;;;;;;8.20;5.63;;;19.80;70.40;;;;;;9182056;19;20037;-68
2022/06/07 12:15:17;;;;;;;10.77;6.43;;;19.80;70.30;;;;;;9182135;19;20022;-68
2022/06/07 12:18:24;;;;;;;8.57;5.97;;;19.80;70.10;;;;;;9173752;19;20018;-68
2022/06/07 12:21:34;;;;;;;7.63;6.25;;;19.80;70.20;;;;;;9173763;19;20022;-69
2022/06/07 12:24:45;;;;;;;10.38;6.78;;;19.80;70.10;;;;;;9170279;19;20011;-69
2022/06/07 12:27:56;;;;;;;12.77;6.80;;;19.90;70.00;;;;;;9174278;19;20095;-68
2022/06/07 12:31:13;;;;;;;8.75;6.35;;;19.90;70.00;;;;;;9175631;19;20380;-68
2022/06/07 12:34:21;;;;;;;7.97;5.28;;;19.90;69.70;;;;;;9174066;19;20014;-69
2022/06/07 12:37:34;;;;;;;7.43;5.03;;;20.00;70.50;;;;;;9182398;19;20022;-70
2022/06/07 12:40:51;;;;;;;11.38;6.32;;;20.00;70.50;;;;;;9179718;19;20048;-69
2022/06/07 12:44:02;;;;;;;9.68;6.18;;;20.00;69.70;;;;;;9184151;19;20021;-69
2022/06/07 12:47:09;;;;;;;10.00;5.43;;;20.00;69.80;;;;;;9183171;19;20025;-70
2022/06/07 12:50:22;;;;;;;10.35;5.35;;;20.00;69.80;;;;;;9184834;19;20357;-69
2022/06/07 12:53:29;;;;;;;8.50;5.32;;;20.10;69.60;;;;;;9183298;19;20028;-69
2022/06/07 12:56:37;;;;;;;9.70;5.97;;;20.10;69.60;;;;;;9182430;19;20011;-69
2022/06/07 12:59:54;;;;;;;6.40;5.05;;;20.10;69.50;;;;;;9181135;19;20015;-70
2022/06/07 13:03:03;;;;;;;7.80;4.78;;;20.10;69.30;;;;;;9178440;19;20731;-69
2022/06/07 13:06:12;;;;;;;6.97;5.00;;;20.10;69.40;;;;;;9183725;19;20026;-69
2022/06/07 13:09:22;;;;;;;12.55;5.78;;;20.20;69.40;;;;;;9184000;19;20022;-69
2022/06/07 13:12:30;;;;;;;11.73;5.70;;;20.20;69.40;;;;;;9182140;19;20015;-69
2022/06/07 13:15:58;;;;;;;8.55;4.85;;;20.30;69.40;;;;;;9179201;19;20010;-68
2022/06/07 13:19:08;;;;;;;;;;;20.30;69.20;;;;;;9177588;19;20440;-68
2022/06/07 13:22:18;;;;;;;8.27;5.35;;;20.40;69.50;;;;;;9183054;19;19922;-68
2022/06/07 13:25:27;;;;;;;9.52;4.88;;;20.50;69.40;;;;;;9176803;19;20082;-68
2022/06/07 13:28:35;;;;;;;8.27;5.32;;;20.50;69.10;;;;;;9181411;19;20484;-68
2022/06/07 13:31:56;;;;;;;8.70;5.07;;;20.60;69.10;;;;;;9180880;19;20357;-68
2022/06/07 13:35:06;;;;;;;8.07;4.72;;;20.70;68.80;;;;;;9181182;19;20349;-68
2022/06/07 13:38:27;;;;;;;7.90;5.68;;;20.70;68.80;;;;;;9181741;19;20751;-68
2022/06/07 13:41:49;;;;;;;9.00;5.53;;;20.80;68.60;;;;;;9187343;19;20017;-66
2022/06/07 13:45:04;;;;;;;10.60;5.82;;;20.80;68.60;;;;;;9185476;19;20025;-67
2022/06/07 13:48:20;;;;;;;8.45;5.47;;;20.80;68.60;;;;;;9185337;19;20353;-69
2022/06/07 13:54:52;;;;;;;7.28;5.43;;;20.90;68.50;;;;;;9187859;19;20029;-69
2022/06/07 13:57:57;;;;;;;6.95;4.40;;;20.90;68.30;;;;;;9185315;19;20025;-69
2022/06/07 14:01:04;;;;;;;8.13;4.30;;;21.00;68.30;;;;;;9186653;19;20106;-71
2022/06/07 14:04:20;;;;;;;7.60;5.38;;;21.00;68.10;;;;;;9178310;19;20015;-70
2022/06/07 14:07:26;;;;;;;7.25;5.18;;;21.10;68.00;;;;;;9180086;19;20026;-71
2022/06/07 14:10:32;;;;;;;10.35;5.15;;;21.10;68.00;;;;;;9181695;19;20121;-70
2022/06/07 14:13:44;;;;;;;9.07;4.82;;;21.20;67.90;;;;;;9181212;19;20477;-70
2022/06/07 14:16:52;;;;;;;14.20;5.18;;;21.20;67.80;;;;;;9179303;19;20022;-71
2022/06/07 14:20:00;;;;;;;6.72;4.07;;;21.20;67.60;;;;;;9178736;19;20022;-70
2022/06/07 14:23:06;;;;;;;6.15;4.07;;;21.30;67.50;;;;;;9180541;19;20475;-70
2022/06/07 14:26:13;;;;;;;6.60;4.25;;;21.30;67.50;;;;;;9174188;19;20030;-69
2022/06/07 14:29:18;;;;;;;7.70;4.63;;;21.40;67.30;;;;;;9179804;19;20006;-71
2022/06/07 14:32:25;;;;;;;9.35;4.38;;;21.40;67.20;;;;;;9177002;19;20017;-70
2022/06/07 14:35:36;;;;;;;5.88;4.13;;;21.40;67.10;;;;;;9178401;19;20018;-70
2022/06/07 14:38:41;;;;;;;5.82;3.70;;;21.40;66.70;;;;;;9177172;19;20026;-70
2022/06/07 14:41:47;;;;;;;4.93;3.40;;;21.50;66.80;;;;;;9179584;19;20109;-70
2022/06/07 14:44:52;;;;;;;6.70;3.80;;;21.50;66.80;;;;;;9178025;19;20029;-71
2022/06/07 14:48:01;;;;;;;5.88;3.53;;;21.50;66.70;;;;;;9178806;19;20024;-71
2022/06/07 14:51:21;;;;;;;6.78;3.60;;;21.50;66.60;;;;;;9178511;19;20015;-71
2022/06/07 14:54:29;;;;;;;6.22;3.75;;;21.50;66.50;;;;;;9179362;19;20015;-71
2022/06/07 14:57:35;;;;;;;7.10;3.70;;;21.60;66.50;;;;;;9179348;19;20021;-70
2022/06/07 15:00:43;;;;;;;8.73;3.75;;;21.60;66.50;;;;;;9174670;19;20022;-71
2022/06/07 15:03:49;;;;;;;6.75;3.58;;;21.70;66.40;;;;;;9175744;19;20018;-73
2022/06/07 15:06:58;;;;;;;8.63;4.10;;;21.70;66.20;;;;;;9176001;19;20654;-71
2022/06/07 15:10:03;;;;;;;4.47;3.30;;;21.80;66.10;;;;;;9177853;19;20112;-71
2022/06/07 15:13:17;;;;;;;10.70;4.57;;;21.90;66.10;;;;;;9179148;19;20023;-70
2022/06/07 15:16:29;;;;;;;9.52;4.50;;;21.90;65.70;;;;;;9178004;19;20040;-71
2022/06/07 15:19:36;;;;;;;9.18;3.83;;;22.00;65.70;;;;;;9177551;19;20015;-72
2022/06/07 15:22:43;;;;;;;8.25;3.50;;;22.00;65.60;;;;;;9179436;19;20356;-71
2022/06/07 15:25:52;;;;;;;8.50;3.42;;;22.10;65.60;;;;;;9172836;19;20010;-71
2022/06/07 15:28:57;;;;;;;6.53;3.65;;;22.10;65.50;;;;;;9176073;19;20338;-70
2022/06/07 15:32:14;;;;;;;6.22;3.15;;;22.20;65.50;;;;;;9175916;19;20019;-71
2022/06/07 15:35:23;;;;;;;5.60;3.65;;;22.20;65.00;;;;;;9177910;19;20014;-72
2022/06/07 15:38:31;;;;;;;5.70;3.67;;;22.20;65.10;;;;;;9175615;19;21669;-72
2022/06/07 15:44:53;;;;;;;7.35;3.90;;;22.30;65.00;;;;;;9177445;19;20044;-72
2022/06/07 15:48:18;;;;;;;8.88;5.55;;;22.40;64.90;;;;;;9176802;19;20026;-71
2022/06/07 15:51:23;;;;;;;7.45;4.10;;;22.40;64.60;;;;;;9176236;19;20036;-71
2022/06/07 15:54:30;;;;;;;6.25;3.25;;;22.50;64.90;;;;;;9173688;19;20026;-70
2022/06/07 16:00:53;;;;;;;8.85;5.10;;;22.50;64.50;;;;;;9172323;19;20077;-71
2022/06/07 16:04:00;;;;;;;7.57;4.20;;;22.50;64.50;;;;;;9175484;19;20022;-70
2022/06/07 16:07:06;;;;;;;8.38;4.03;;;22.50;64.40;;;;;;9176083;19;20021;-70
2022/06/07 16:10:15;;;;;;;5.63;3.42;;;22.50;64.30;;;;;;9175920;19;20026;-71
2022/06/07 16:13:21;;;;;;;4.78;3.15;;;22.50;64.10;;;;;;9185537;19;20535;-71
2022/06/07 16:16:29;;;;;;;4.40;3.25;;;22.40;64.10;;;;;;9184104;19;20017;-72
2022/06/07 16:19:35;;;;;;;9.07;3.50;;;22.40;64.10;;;;;;9181643;19;20074;-71
2022/06/07 16:22:41;;;;;;;5.65;3.28;;;22.40;63.90;;;;;;9185011;19;20035;-71
2022/06/07 16:25:49;;;;;;;5.32;3.00;;;22.40;63.90;;;;;;9178481;19;20561;-70
2022/06/07 16:35:36;;;;;;;5.78;2.90;;;22.30;63.60;;;;;;9183494;19;20447;-70
2022/06/07 16:38:45;;;;;;;5.85;3.00;;;22.30;63.60;;;;;;9184844;19;20024;-71
2022/06/07 16:41:53;;;;;;;3.95;2.67;;;22.20;63.50;;;;;;9179395;19;20019;-70
2022/06/07 16:44:58;;;;;;;5.85;2.42;;;22.20;63.40;;;;;;9184615;19;20018;-70
2022/06/07 16:48:03;;;;;;;3.60;2.78;;;22.10;63.30;;;;;;9183643;19;20483;-70
2022/06/07 16:51:08;;;;;;;6.35;2.83;;;22.00;63.20;;;;;;9184002;19;20650;-73
2022/06/07 16:54:15;;;;;;;4.10;3.03;;;22.00;63.20;;;;;;9182531;19;20025;-70
2022/06/07 16:57:26;;;;;;;5.82;2.70;;;21.90;63.20;;;;;;9182709;19;20492;-70
2022/06/07 17:00:33;;;;;;;3.95;2.53;;;21.80;63.20;;;;;;9182111;19;20022;-71